Terminal Aerodrome Forecast
Issued by NWS

Home | Current Version | Previous Version | Text Only | Print | Product List | Glossary On
Versions: 1 2 3 4 5 6 7 8 9 10 11 12 13 14
000
FTUS44 KLZK 021100
TAFBPK
TAF
KBPK 021120Z 0212/0312 VRB04KT 5SM BR VCSH BKN025
     FM021400 18010G18KT P6SM VCTS BKN050CB
      TEMPO 0223/0301 27015G25KT 2SM +TSRA BKN015CB
     FM030200 27010KT 5SM BR VCSH OVC025
     FM030800 30007KT P6SM SCT100=

USA.gov is the U.S. government's official web portal to all federal, state and local government web resources and services.